sensor_id;sensor_type;location;lat;lon;timestamp;pressure;altitude;pressure_sealevel;temperature;humidity
61055;BME280;46939;48.940;8.258;2023-01-27T00:01:14;100763.19;;;9.69;40.16
61055;BME280;46939;48.940;8.258;2023-01-27T00:03:43;100762.56;;;9.59;40.53
61055;BME280;46939;48.940;8.258;2023-01-27T00:06:12;100762.09;;;9.55;40.40
61055;BME280;46939;48.940;8.258;2023-01-27T00:08:40;100764.69;;;9.63;40.21
61055;BME280;46939;48.940;8.258;2023-01-27T00:11:08;100763.88;;;9.63;40.18
61055;BME280;46939;48.940;8.258;2023-01-27T00:13:52;100758.63;;;9.54;40.46
61055;BME280;46939;48.940;8.258;2023-01-27T00:16:20;100761.94;;;9.48;40.43
61055;BME280;46939;48.940;8.258;2023-01-27T00:18:49;100756.31;;;9.51;40.24
61055;BME280;46939;48.940;8.258;2023-01-27T00:21:17;100757.94;;;9.52;40.33
61055;BME280;46939;48.940;8.258;2023-01-27T00:23:58;100761.63;;;9.43;40.63
61055;BME280;46939;48.940;8.258;2023-01-27T00:26:39;100753.31;;;9.54;40.54
61055;BME280;46939;48.940;8.258;2023-01-27T00:29:10;100754.44;;;9.60;40.27
61055;BME280;46939;48.940;8.258;2023-01-27T00:31:39;100756.13;;;9.61;40.32
61055;BME280;46939;48.940;8.258;2023-01-27T00:34:20;100759.59;;;9.62;40.54
61055;BME280;46939;48.940;8.258;2023-01-27T00:36:48;100757.78;;;9.54;40.75
61055;BME280;46939;48.940;8.258;2023-01-27T00:39:17;100765.25;;;9.50;40.73
61055;BME280;46939;48.940;8.258;2023-01-27T00:41:45;100762.75;;;9.57;40.51
61055;BME280;46939;48.940;8.258;2023-01-27T00:44:16;100763.72;;;9.56;40.59
61055;BME280;46939;48.940;8.258;2023-01-27T00:46:44;100766.03;;;9.59;40.73
61055;BME280;46939;48.940;8.258;2023-01-27T00:49:13;100759.09;;;9.58;40.47
61055;BME280;46939;48.940;8.258;2023-01-27T00:51:42;100748.19;;;9.53;40.85
61055;BME280;46939;48.940;8.258;2023-01-27T00:54:11;100752.50;;;9.54;40.46
61055;BME280;46939;48.940;8.258;2023-01-27T00:56:39;100742.91;;;9.53;40.67
61055;BME280;46939;48.940;8.258;2023-01-27T00:59:09;100745.16;;;9.64;40.45
61055;BME280;46939;48.940;8.258;2023-01-27T01:01:40;100745.69;;;9.60;40.17
61055;BME280;46939;48.940;8.258;2023-01-27T01:04:08;100737.75;;;9.60;40.14
61055;BME280;46939;48.940;8.258;2023-01-27T01:06:37;100747.13;;;9.70;40.14
61055;BME280;46939;48.940;8.258;2023-01-27T01:09:05;100752.00;;;9.59;40.54
61055;BME280;46939;48.940;8.258;2023-01-27T01:11:33;100742.03;;;9.61;40.56
61055;BME280;46939;48.940;8.258;2023-01-27T01:14:02;100747.69;;;9.58;40.41
61055;BME280;46939;48.940;8.258;2023-01-27T01:16:30;100748.53;;;9.58;40.33
61055;BME280;46939;48.940;8.258;2023-01-27T01:19:01;100749.00;;;9.62;40.65
61055;BME280;46939;48.940;8.258;2023-01-27T01:21:29;100751.66;;;9.62;40.25
61055;BME280;46939;48.940;8.258;2023-01-27T01:23:58;100753.25;;;9.71;40.08
61055;BME280;46939;48.940;8.258;2023-01-27T01:26:26;100752.44;;;9.70;39.96
61055;BME280;46939;48.940;8.258;2023-01-27T01:28:55;100747.31;;;9.69;40.02
61055;BME280;46939;48.940;8.258;2023-01-27T01:31:23;100748.44;;;9.74;39.90
61055;BME280;46939;48.940;8.258;2023-01-27T01:33:51;100752.25;;;9.72;39.46
61055;BME280;46939;48.940;8.258;2023-01-27T01:36:22;100748.91;;;9.78;39.42
61055;BME280;46939;48.940;8.258;2023-01-27T01:38:54;100751.75;;;9.76;39.41
61055;BME280;46939;48.940;8.258;2023-01-27T01:41:23;100739.28;;;9.54;39.67
61055;BME280;46939;48.940;8.258;2023-01-27T01:43:52;100739.38;;;9.69;39.70
61055;BME280;46939;48.940;8.258;2023-01-27T01:46:20;100735.16;;;9.83;39.31
61055;BME280;46939;48.940;8.258;2023-01-27T01:48:52;100731.88;;;9.81;38.98
61055;BME280;46939;48.940;8.258;2023-01-27T01:51:26;100730.22;;;9.79;39.37
61055;BME280;46939;48.940;8.258;2023-01-27T01:53:59;100733.72;;;9.72;39.39
61055;BME280;46939;48.940;8.258;2023-01-27T01:56:32;100732.38;;;9.76;39.27
61055;BME280;46939;48.940;8.258;2023-01-27T01:59:05;100729.06;;;9.82;39.12
61055;BME280;46939;48.940;8.258;2023-01-27T02:01:36;100730.25;;;9.71;39.34
61055;BME280;46939;48.940;8.258;2023-01-27T02:04:08;100731.41;;;9.77;38.95
61055;BME280;46939;48.940;8.258;2023-01-27T02:06:44;100725.69;;;9.65;39.29
61055;BME280;46939;48.940;8.258;2023-01-27T02:09:17;100719.84;;;9.70;39.35
61055;BME280;46939;48.940;8.258;2023-01-27T02:11:47;100725.63;;;9.73;39.19
61055;BME280;46939;48.940;8.258;2023-01-27T02:14:17;100720.38;;;9.65;39.19
61055;BME280;46939;48.940;8.258;2023-01-27T02:16:45;100723.13;;;9.72;39.34
61055;BME280;46939;48.940;8.258;2023-01-27T02:19:19;100720.50;;;9.72;39.41
61055;BME280;46939;48.940;8.258;2023-01-27T02:21:53;100723.66;;;9.67;39.21
61055;BME280;46939;48.940;8.258;2023-01-27T02:24:23;100722.03;;;9.66;39.17
61055;BME280;46939;48.940;8.258;2023-01-27T02:26:59;100721.28;;;9.49;39.62
61055;BME280;46939;48.940;8.258;2023-01-27T02:29:28;100727.94;;;9.68;39.03
61055;BME280;46939;48.940;8.258;2023-01-27T02:31:56;100725.97;;;9.70;39.11
61055;BME280;46939;48.940;8.258;2023-01-27T02:34:29;100725.94;;;9.78;39.10
61055;BME280;46939;48.940;8.258;2023-01-27T02:37:04;100727.06;;;9.84;39.20
61055;BME280;46939;48.940;8.258;2023-01-27T02:39:38;100727.22;;;9.83;39.07
61055;BME280;46939;48.940;8.258;2023-01-27T02:42:11;100721.94;;;9.83;38.92
61055;BME280;46939;48.940;8.258;2023-01-27T02:44:41;100716.81;;;9.81;39.03
61055;BME280;46939;48.940;8.258;2023-01-27T02:47:09;100723.47;;;9.77;39.24
61055;BME280;46939;48.940;8.258;2023-01-27T02:49:38;100724.63;;;9.74;39.34
61055;BME280;46939;48.940;8.258;2023-01-27T02:52:06;100720.97;;;9.75;39.13
61055;BME280;46939;48.940;8.258;2023-01-27T02:54:34;100723.63;;;9.75;39.61
61055;BME280;46939;48.940;8.258;2023-01-27T02:57:03;100726.59;;;9.81;39.17
61055;BME280;46939;48.940;8.258;2023-01-27T02:59:34;100719.63;;;9.79;39.34
61055;BME280;46939;48.940;8.258;2023-01-27T03:02:02;100726.59;;;9.81;39.01
61055;BME280;46939;48.940;8.258;2023-01-27T03:04:31;100720.34;;;9.73;39.44
61055;BME280;46939;48.940;8.258;2023-01-27T03:07:03;100724.44;;;9.76;39.28
61055;BME280;46939;48.940;8.258;2023-01-27T03:09:31;100729.19;;;9.89;39.22
61055;BME280;46939;48.940;8.258;2023-01-27T03:11:59;100712.84;;;9.85;38.94
61055;BME280;46939;48.940;8.258;2023-01-27T03:14:43;100714.81;;;9.83;38.97
61055;BME280;46939;48.940;8.258;2023-01-27T03:17:23;100717.47;;;9.83;39.34
61055;BME280;46939;48.940;8.258;2023-01-27T03:20:05;100724.56;;;9.83;39.34
61055;BME280;46939;48.940;8.258;2023-01-27T03:22:34;100714.88;;;9.75;39.49
61055;BME280;46939;48.940;8.258;2023-01-27T03:25:02;100720.00;;;9.68;39.47
61055;BME280;46939;48.940;8.258;2023-01-27T03:27:31;100718.91;;;9.63;39.53
61055;BME280;46939;48.940;8.258;2023-01-27T03:30:02;100717.56;;;9.67;39.63
61055;BME280;46939;48.940;8.258;2023-01-27T03:32:31;100723.53;;;9.61;39.99
61055;BME280;46939;48.940;8.258;2023-01-27T03:35:00;100720.16;;;9.75;39.71
61055;BME280;46939;48.940;8.258;2023-01-27T03:37:30;100726.31;;;9.67;39.83
61055;BME280;46939;48.940;8.258;2023-01-27T03:40:12;100724.91;;;9.79;39.71
61055;BME280;46939;48.940;8.258;2023-01-27T03:42:53;100721.84;;;9.68;39.95
61055;BME280;46939;48.940;8.258;2023-01-27T03:45:36;100729.78;;;9.68;39.76
61055;BME280;46939;48.940;8.258;2023-01-27T03:48:17;100731.06;;;9.80;39.59
61055;BME280;46939;48.940;8.258;2023-01-27T03:50:46;100733.91;;;9.70;39.82
61055;BME280;46939;48.940;8.258;2023-01-27T03:53:17;100734.91;;;9.69;39.54
61055;BME280;46939;48.940;8.258;2023-01-27T03:55:46;100736.56;;;9.70;39.46
61055;BME280;46939;48.940;8.258;2023-01-27T03:58:18;100738.16;;;9.79;39.38
61055;BME280;46939;48.940;8.258;2023-01-27T04:00:52;100744.81;;;9.98;38.68
61055;BME280;46939;48.940;8.258;2023-01-27T04:03:22;100750.34;;;9.89;39.21
61055;BME280;46939;48.940;8.258;2023-01-27T04:06:05;100752.25;;;9.72;39.55
61055;BME280;46939;48.940;8.258;2023-01-27T04:08:46;100743.19;;;9.66;39.78
61055;BME280;46939;48.940;8.258;2023-01-27T04:11:14;100741.47;;;9.82;39.04
61055;BME280;46939;48.940;8.258;2023-01-27T04:13:55;100741.16;;;9.76;39.38
61055;BME280;46939;48.940;8.258;2023-01-27T04:16:26;100753.19;;;9.79;39.13
61055;BME280;46939;48.940;8.258;2023-01-27T04:18:55;100750.34;;;9.89;39.12
61055;BME280;46939;48.940;8.258;2023-01-27T04:21:24;100757.03;;;9.76;38.90
61055;BME280;46939;48.940;8.258;2023-01-27T04:23:53;100746.47;;;9.76;39.00
61055;BME280;46939;48.940;8.258;2023-01-27T04:26:22;100751.41;;;9.71;39.23
61055;BME280;46939;48.940;8.258;2023-01-27T04:28:51;100751.03;;;9.83;38.87
61055;BME280;46939;48.940;8.258;2023-01-27T04:31:19;100748.78;;;9.71;38.97
61055;BME280;46939;48.940;8.258;2023-01-27T04:33:50;100749.63;;;9.64;39.39
61055;BME280;46939;48.940;8.258;2023-01-27T04:36:19;100754.97;;;9.56;39.33
61055;BME280;46939;48.940;8.258;2023-01-27T04:38:47;100748.66;;;9.65;39.59
61055;BME280;46939;48.940;8.258;2023-01-27T04:41:15;100752.91;;;9.74;39.31
61055;BME280;46939;48.940;8.258;2023-01-27T04:43:44;100762.34;;;9.76;39.37
61055;BME280;46939;48.940;8.258;2023-01-27T04:46:12;100758.06;;;9.67;39.71
61055;BME280;46939;48.940;8.258;2023-01-27T04:48:41;100741.44;;;9.50;40.21
61055;BME280;46939;48.940;8.258;2023-01-27T04:51:12;100753.59;;;9.68;40.07
61055;BME280;46939;48.940;8.258;2023-01-27T04:53:40;100749.19;;;9.52;40.69
61055;BME280;46939;48.940;8.258;2023-01-27T04:56:26;100752.84;;;9.51;40.89
61055;BME280;46939;48.940;8.258;2023-01-27T04:58:57;100749.13;;;9.68;40.61
61055;BME280;46939;48.940;8.258;2023-01-27T05:01:26;100751.94;;;9.67;40.74
61055;BME280;46939;48.940;8.258;2023-01-27T05:03:55;100752.28;;;9.64;40.74
61055;BME280;46939;48.940;8.258;2023-01-27T05:06:27;100752.13;;;9.65;40.58
61055;BME280;46939;48.940;8.258;2023-01-27T05:08:55;100752.94;;;9.66;40.55
61055;BME280;46939;48.940;8.258;2023-01-27T05:11:24;100756.91;;;9.70;40.67
61055;BME280;46939;48.940;8.258;2023-01-27T05:13:52;100762.66;;;9.73;40.68
61055;BME280;46939;48.940;8.258;2023-01-27T05:16:22;100762.34;;;9.76;40.56
61055;BME280;46939;48.940;8.258;2023-01-27T05:18:52;100756.91;;;9.70;41.11
61055;BME280;46939;48.940;8.258;2023-01-27T05:21:22;100762.53;;;9.67;40.89
61055;BME280;46939;48.940;8.258;2023-01-27T05:23:55;100764.78;;;9.78;40.62
61055;BME280;46939;48.940;8.258;2023-01-27T05:26:25;100764.31;;;9.74;40.88
61055;BME280;46939;48.940;8.258;2023-01-27T05:28:56;100762.38;;;9.60;41.13
61055;BME280;46939;48.940;8.258;2023-01-27T05:31:26;100761.56;;;9.60;41.26
61055;BME280;46939;48.940;8.258;2023-01-27T05:33:57;100762.47;;;9.75;41.29
61055;BME280;46939;48.940;8.258;2023-01-27T05:36:27;100768.13;;;9.72;41.07
61055;BME280;46939;48.940;8.258;2023-01-27T05:38:58;100773.59;;;9.70;41.08
61055;BME280;46939;48.940;8.258;2023-01-27T05:41:28;100770.22;;;9.85;40.85
61055;BME280;46939;48.940;8.258;2023-01-27T05:43:57;100764.28;;;9.83;41.23
61055;BME280;46939;48.940;8.258;2023-01-27T05:46:27;100773.84;;;9.92;40.72
61055;BME280;46939;48.940;8.258;2023-01-27T05:48:59;100770.22;;;9.85;40.75
61055;BME280;46939;48.940;8.258;2023-01-27T05:51:30;100778.53;;;9.73;41.05
61055;BME280;46939;48.940;8.258;2023-01-27T05:54:02;100779.81;;;9.86;40.55
61055;BME280;46939;48.940;8.258;2023-01-27T05:56:31;100789.56;;;9.85;40.94
61055;BME280;46939;48.940;8.258;2023-01-27T05:58:59;100786.78;;;9.78;40.99
61055;BME280;46939;48.940;8.258;2023-01-27T06:01:30;100782.00;;;9.74;40.96
61055;BME280;46939;48.940;8.258;2023-01-27T06:03:59;100782.78;;;9.83;40.93
61055;BME280;46939;48.940;8.258;2023-01-27T06:06:29;100785.19;;;9.69;41.58
61055;BME280;46939;48.940;8.258;2023-01-27T06:09:00;100781.00;;;9.75;41.18
61055;BME280;46939;48.940;8.258;2023-01-27T06:11:29;100780.31;;;9.81;41.45
61055;BME280;46939;48.940;8.258;2023-01-27T06:13:57;100779.84;;;9.77;41.39
61055;BME280;46939;48.940;8.258;2023-01-27T06:16:26;100787.06;;;9.84;41.28
61055;BME280;46939;48.940;8.258;2023-01-27T06:18:54;100789.03;;;9.90;41.21
61055;BME280;46939;48.940;8.258;2023-01-27T06:21:23;100786.97;;;9.77;41.59
61055;BME280;46939;48.940;8.258;2023-01-27T06:23:52;100788.09;;;9.83;41.47
61055;BME280;46939;48.940;8.258;2023-01-27T06:26:24;100787.41;;;9.89;41.42
61055;BME280;46939;48.940;8.258;2023-01-27T06:28:55;100785.41;;;9.91;41.15
61055;BME280;46939;48.940;8.258;2023-01-27T06:31:24;100793.38;;;9.83;41.21
61055;BME280;46939;48.940;8.258;2023-01-27T06:33:52;100798.66;;;9.83;41.56
61055;BME280;46939;48.940;8.258;2023-01-27T06:36:21;100800.97;;;9.86;41.51
61055;BME280;46939;48.940;8.258;2023-01-27T06:38:50;100792.25;;;9.77;41.42
61055;BME280;46939;48.940;8.258;2023-01-27T06:41:18;100805.59;;;9.84;41.44
61055;BME280;46939;48.940;8.258;2023-01-27T06:43:49;100812.88;;;9.90;41.44
61055;BME280;46939;48.940;8.258;2023-01-27T06:46:17;100807.28;;;9.85;41.66
61055;BME280;46939;48.940;8.258;2023-01-27T06:48:46;100816.22;;;9.75;41.63
61055;BME280;46939;48.940;8.258;2023-01-27T06:51:14;100823.31;;;9.83;41.71
61055;BME280;46939;48.940;8.258;2023-01-27T06:53:43;100822.81;;;9.79;41.56
61055;BME280;46939;48.940;8.258;2023-01-27T06:56:11;100820.03;;;9.81;41.74
61055;BME280;46939;48.940;8.258;2023-01-27T06:58:40;100818.59;;;9.62;41.83
61055;BME280;46939;48.940;8.258;2023-01-27T07:01:11;100816.97;;;9.61;41.91
61055;BME280;46939;48.940;8.258;2023-01-27T07:03:39;100812.91;;;9.82;41.72
61055;BME280;46939;48.940;8.258;2023-01-27T07:06:07;100814.41;;;9.76;41.46
61055;BME280;46939;48.940;8.258;2023-01-27T07:08:36;100820.31;;;9.86;41.27
61055;BME280;46939;48.940;8.258;2023-01-27T07:11:04;100819.13;;;9.97;41.32
61055;BME280;46939;48.940;8.258;2023-01-27T07:13:33;100825.41;;;9.96;41.38
61055;BME280;46939;48.940;8.258;2023-01-27T07:16:01;100827.53;;;10.00;40.89
61055;BME280;46939;48.940;8.258;2023-01-27T07:18:32;100829.84;;;9.95;40.96
61055;BME280;46939;48.940;8.258;2023-01-27T07:21:02;100837.31;;;10.00;41.06
61055;BME280;46939;48.940;8.258;2023-01-27T07:23:31;100837.78;;;10.03;40.72
61055;BME280;46939;48.940;8.258;2023-01-27T07:26:00;100836.06;;;10.11;40.77
61055;BME280;46939;48.940;8.258;2023-01-27T07:28:29;100842.63;;;9.92;40.95
61055;BME280;46939;48.940;8.258;2023-01-27T07:31:00;100852.66;;;10.05;40.67
61055;BME280;46939;48.940;8.258;2023-01-27T07:33:31;100848.34;;;9.64;41.23
61055;BME280;46939;48.940;8.258;2023-01-27T07:36:01;100850.13;;;9.80;41.18
61055;BME280;46939;48.940;8.258;2023-01-27T07:38:29;100863.19;;;9.82;40.94
61055;BME280;46939;48.940;8.258;2023-01-27T07:41:02;100860.19;;;9.85;40.89
61055;BME280;46939;48.940;8.258;2023-01-27T07:43:31;100865.00;;;9.81;40.98
61055;BME280;46939;48.940;8.258;2023-01-27T07:45:59;100867.09;;;9.94;40.81
61055;BME280;46939;48.940;8.258;2023-01-27T07:48:28;100867.06;;;10.02;40.81
61055;BME280;46939;48.940;8.258;2023-01-27T07:50:59;100872.38;;;9.94;40.67
61055;BME280;46939;48.940;8.258;2023-01-27T07:53:27;100880.28;;;10.02;40.54
61055;BME280;46939;48.940;8.258;2023-01-27T07:55:58;100873.50;;;10.08;40.61
61055;BME280;46939;48.940;8.258;2023-01-27T07:58:26;100880.28;;;10.02;40.43
61055;BME280;46939;48.940;8.258;2023-01-27T08:00:54;100882.78;;;10.03;40.73
61055;BME280;46939;48.940;8.258;2023-01-27T08:03:24;100886.22;;;10.12;40.66
61055;BME280;46939;48.940;8.258;2023-01-27T08:05:53;100886.69;;;10.16;40.50
61055;BME280;46939;48.940;8.258;2023-01-27T08:08:24;100889.72;;;10.05;40.99
61055;BME280;46939;48.940;8.258;2023-01-27T08:10:52;100888.00;;;9.81;41.08
61055;BME280;46939;48.940;8.258;2023-01-27T08:13:20;100886.53;;;9.70;41.00
61055;BME280;46939;48.940;8.258;2023-01-27T08:15:54;100888.09;;;9.95;40.47
61055;BME280;46939;48.940;8.258;2023-01-27T08:18:25;100884.31;;;9.90;40.42
61055;BME280;46939;48.940;8.258;2023-01-27T08:20:54;100886.25;;;10.04;39.62
61055;BME280;46939;48.940;8.258;2023-01-27T08:23:25;100882.16;;;9.93;39.57
61055;BME280;46939;48.940;8.258;2023-01-27T08:25:55;100883.06;;;9.69;38.98
61055;BME280;46939;48.940;8.258;2023-01-27T08:28:25;100886.44;;;9.94;39.00
61055;BME280;46939;48.940;8.258;2023-01-27T08:31:02;100889.81;;;9.80;38.91
61055;BME280;46939;48.940;8.258;2023-01-27T08:33:31;100886.84;;;9.75;38.74
61055;BME280;46939;48.940;8.258;2023-01-27T08:36:04;100905.56;;;9.49;39.30
61055;BME280;46939;48.940;8.258;2023-01-27T08:38:36;100893.94;;;9.83;38.40
61055;BME280;46939;48.940;8.258;2023-01-27T08:41:06;100887.63;;;9.84;38.53
61055;BME280;46939;48.940;8.258;2023-01-27T08:43:35;100889.31;;;9.85;38.67
61055;BME280;46939;48.940;8.258;2023-01-27T08:46:04;100893.50;;;9.54;39.25
61055;BME280;46939;48.940;8.258;2023-01-27T08:48:34;100895.34;;;9.29;39.75
61055;BME280;46939;48.940;8.258;2023-01-27T08:51:03;100898.97;;;8.88;39.79
61055;BME280;46939;48.940;8.258;2023-01-27T08:53:33;100899.59;;;9.63;39.05
61055;BME280;46939;48.940;8.258;2023-01-27T08:56:06;100893.56;;;9.94;38.56
61055;BME280;46939;48.940;8.258;2023-01-27T08:58:35;100897.75;;;9.80;38.25
61055;BME280;46939;48.940;8.258;2023-01-27T09:01:05;100895.84;;;9.49;38.96
61055;BME280;46939;48.940;8.258;2023-01-27T09:03:34;100889.13;;;9.86;38.46
61055;BME280;46939;48.940;8.258;2023-01-27T09:06:04;100900.53;;;9.87;38.14
61055;BME280;46939;48.940;8.258;2023-01-27T09:08:34;100898.75;;;10.18;37.92
61055;BME280;46939;48.940;8.258;2023-01-27T09:11:14;100891.88;;;10.01;37.57
61055;BME280;46939;48.940;8.258;2023-01-27T09:13:43;100891.91;;;9.93;38.22
61055;BME280;46939;48.940;8.258;2023-01-27T09:16:11;100894.56;;;10.40;37.58
61055;BME280;46939;48.940;8.258;2023-01-27T09:18:40;100899.34;;;10.68;37.10
61055;BME280;46939;48.940;8.258;2023-01-27T09:21:09;100906.41;;;10.52;36.70
61055;BME280;46939;48.940;8.258;2023-01-27T09:23:37;100907.69;;;10.65;36.68
61055;BME280;46939;48.940;8.258;2023-01-27T09:26:06;100910.25;;;10.50;36.99
61055;BME280;46939;48.940;8.258;2023-01-27T09:28:37;100910.97;;;10.67;36.77
61055;BME280;46939;48.940;8.258;2023-01-27T09:31:05;100924.22;;;10.67;36.04
61055;BME280;46939;48.940;8.258;2023-01-27T09:33:35;100918.28;;;10.88;36.16
61055;BME280;46939;48.940;8.258;2023-01-27T09:36:07;100920.97;;;11.03;36.05
61055;BME280;46939;48.940;8.258;2023-01-27T09:38:40;100933.34;;;11.10;35.39
61055;BME280;46939;48.940;8.258;2023-01-27T09:41:44;100927.00;;;11.19;34.92
61055;BME280;46939;48.940;8.258;2023-01-27T09:47:29;100924.34;;;11.19;35.28
61055;BME280;46939;48.940;8.258;2023-01-27T09:50:22;100928.06;;;11.48;35.20
61055;BME280;46939;48.940;8.258;2023-01-27T09:53:13;100925.41;;;11.48;34.56
61055;BME280;46939;48.940;8.258;2023-01-27T09:55:49;100929.06;;;11.09;35.00
61055;BME280;46939;48.940;8.258;2023-01-27T09:58:26;100920.19;;;11.40;34.79
61055;BME280;46939;48.940;8.258;2023-01-27T10:01:07;100933.75;;;11.22;35.10
61055;BME280;46939;48.940;8.258;2023-01-27T10:04:00;100932.19;;;11.13;35.92
61055;BME280;46939;48.940;8.258;2023-01-27T10:06:49;100931.53;;;11.48;35.09
61055;BME280;46939;48.940;8.258;2023-01-27T10:09:36;100921.00;;;11.40;35.06
61055;BME280;46939;48.940;8.258;2023-01-27T10:12:17;100920.69;;;11.58;35.12
61055;BME280;46939;48.940;8.258;2023-01-27T10:14:55;100926.06;;;11.50;35.03
61055;BME280;46939;48.940;8.258;2023-01-27T10:17:35;100922.31;;;10.75;35.52
61055;BME280;46939;48.940;8.258;2023-01-27T10:20:24;100929.16;;;11.39;34.99
61055;BME280;46939;48.940;8.258;2023-01-27T10:23:05;100929.47;;;11.59;34.75
61055;BME280;46939;48.940;8.258;2023-01-27T10:25:48;100914.59;;;11.72;34.84
61055;BME280;46939;48.940;8.258;2023-01-27T10:28:21;100914.19;;;11.76;34.63
61055;BME280;46939;48.940;8.258;2023-01-27T10:30:57;100916.09;;;11.52;34.91
61055;BME280;46939;48.940;8.258;2023-01-27T10:33:36;100907.16;;;11.83;34.22
61055;BME280;46939;48.940;8.258;2023-01-27T10:36:15;100914.31;;;11.30;34.89
61055;BME280;46939;48.940;8.258;2023-01-27T10:38:50;100908.78;;;11.16;34.93
61055;BME280;46939;48.940;8.258;2023-01-27T10:41:28;100920.56;;;11.52;34.88
61055;BME280;46939;48.940;8.258;2023-01-27T10:44:11;100917.84;;;10.99;35.05
61055;BME280;46939;48.940;8.258;2023-01-27T10:46:49;100912.84;;;11.65;34.25
61055;BME280;46939;48.940;8.258;2023-01-27T10:49:22;100910.22;;;11.04;34.67
61055;BME280;46939;48.940;8.258;2023-01-27T10:51:59;100910.03;;;11.43;34.41
61055;BME280;46939;48.940;8.258;2023-01-27T10:54:34;100911.72;;;11.74;33.37
61055;BME280;46939;48.940;8.258;2023-01-27T10:57:10;100903.72;;;11.97;33.74
61055;BME280;46939;48.940;8.258;2023-01-27T10:59:44;100910.03;;;11.43;34.51
61055;BME280;46939;48.940;8.258;2023-01-27T11:02:22;100911.25;;;10.95;34.93
61055;BME280;46939;48.940;8.258;2023-01-27T11:04:55;100908.94;;;11.38;34.63
61055;BME280;46939;48.940;8.258;2023-01-27T11:07:30;100903.50;;;11.69;34.03
61055;BME280;46939;48.940;8.258;2023-01-27T11:10:02;100899.97;;;11.39;34.94
61055;BME280;46939;48.940;8.258;2023-01-27T11:12:34;100899.34;;;11.14;35.07
61055;BME280;46939;48.940;8.258;2023-01-27T11:15:15;100899.63;;;11.04;35.76
61055;BME280;46939;48.940;8.258;2023-01-27T11:17:47;100894.28;;;11.27;34.83
61055;BME280;46939;48.940;8.258;2023-01-27T11:20:25;100894.72;;;11.83;33.62
61055;BME280;46939;48.940;8.258;2023-01-27T11:23:01;100898.59;;;11.95;33.97
61055;BME280;46939;48.940;8.258;2023-01-27T11:25:39;100884.31;;;12.11;33.43
61055;BME280;46939;48.940;8.258;2023-01-27T11:28:21;100883.28;;;11.97;33.42
61055;BME280;46939;48.940;8.258;2023-01-27T11:31:00;100879.72;;;11.90;33.74
61055;BME280;46939;48.940;8.258;2023-01-27T11:33:35;100883.19;;;11.91;33.39
61055;BME280;46939;48.940;8.258;2023-01-27T11:36:08;100877.88;;;11.76;33.47
61055;BME280;46939;48.940;8.258;2023-01-27T11:38:39;100886.31;;;11.94;33.81
61055;BME280;46939;48.940;8.258;2023-01-27T11:41:08;100883.91;;;12.14;33.73
61055;BME280;46939;48.940;8.258;2023-01-27T11:43:37;100893.09;;;11.97;33.46
61055;BME280;46939;48.940;8.258;2023-01-27T11:46:10;100882.63;;;12.25;33.76
61055;BME280;46939;48.940;8.258;2023-01-27T11:48:45;100890.47;;;12.33;33.00
61055;BME280;46939;48.940;8.258;2023-01-27T11:51:17;100886.41;;;12.01;33.90
61055;BME280;46939;48.940;8.258;2023-01-27T11:53:52;100881.25;;;11.55;34.25
61055;BME280;46939;48.940;8.258;2023-01-27T11:56:26;100885.38;;;11.58;34.65
61055;BME280;46939;48.940;8.258;2023-01-27T11:59:00;100876.28;;;11.52;34.17
61055;BME280;46939;48.940;8.258;2023-01-27T12:01:37;100877.03;;;11.46;35.19
61055;BME280;46939;48.940;8.258;2023-01-27T12:04:12;100868.22;;;11.31;35.11
61055;BME280;46939;48.940;8.258;2023-01-27T12:06:46;100876.28;;;11.52;34.64
61055;BME280;46939;48.940;8.258;2023-01-27T12:09:32;100868.66;;;11.87;34.56
61055;BME280;46939;48.940;8.258;2023-01-27T12:12:10;100860.72;;;11.49;34.28
61055;BME280;46939;48.940;8.258;2023-01-27T12:14:38;100863.53;;;12.00;34.22
61055;BME280;46939;48.940;8.258;2023-01-27T12:17:10;100865.72;;;12.11;33.52
61055;BME280;46939;48.940;8.258;2023-01-27T12:19:41;100859.06;;;12.22;34.17
61055;BME280;46939;48.940;8.258;2023-01-27T12:22:18;100867.81;;;12.16;33.80
61055;BME280;46939;48.940;8.258;2023-01-27T12:24:55;100854.84;;;12.42;32.89
61055;BME280;46939;48.940;8.258;2023-01-27T12:27:27;100870.47;;;11.86;33.93
61055;BME280;46939;48.940;8.258;2023-01-27T12:29:59;100869.00;;;11.84;34.10
61055;BME280;46939;48.940;8.258;2023-01-27T12:32:36;100869.81;;;11.69;34.14
61055;BME280;46939;48.940;8.258;2023-01-27T12:35:18;100870.03;;;11.15;35.38
61055;BME280;46939;48.940;8.258;2023-01-27T12:37:48;100866.09;;;11.26;35.13
61055;BME280;46939;48.940;8.258;2023-01-27T12:40:26;100870.22;;;11.29;35.11
61055;BME280;46939;48.940;8.258;2023-01-27T12:43:09;100854.53;;;11.71;34.60
61055;BME280;46939;48.940;8.258;2023-01-27T12:45:38;100869.19;;;11.97;34.24
61055;BME280;46939;48.940;8.258;2023-01-27T12:48:18;100860.13;;;11.77;34.36
61055;BME280;46939;48.940;8.258;2023-01-27T12:51:02;100866.25;;;11.77;34.45
61055;BME280;46939;48.940;8.258;2023-01-27T12:53:32;100872.31;;;11.86;34.64
61055;BME280;46939;48.940;8.258;2023-01-27T12:56:10;100857.66;;;11.90;33.88
61055;BME280;46939;48.940;8.258;2023-01-27T12:58:41;100858.19;;;12.15;33.65
61055;BME280;46939;48.940;8.258;2023-01-27T13:01:23;100862.78;;;12.06;34.00
61055;BME280;46939;48.940;8.258;2023-01-27T13:03:55;100864.13;;;12.17;33.66
61055;BME280;46939;48.940;8.258;2023-01-27T13:06:31;100866.50;;;12.27;33.75
61055;BME280;46939;48.940;8.258;2023-01-27T13:09:02;100867.63;;;11.73;34.19
61055;BME280;46939;48.940;8.258;2023-01-27T13:11:38;100870.25;;;12.17;33.85
61055;BME280;46939;48.940;8.258;2023-01-27T13:14:08;100870.47;;;11.86;34.11
61055;BME280;46939;48.940;8.258;2023-01-27T13:16:49;100871.31;;;11.87;34.08
61055;BME280;46939;48.940;8.258;2023-01-27T13:19:18;100869.56;;;11.94;34.37
61055;BME280;46939;48.940;8.258;2023-01-27T13:21:48;100868.97;;;12.28;33.58
61055;BME280;46939;48.940;8.258;2023-01-27T13:24:23;100869.91;;;12.20;33.47
61055;BME280;46939;48.940;8.258;2023-01-27T13:26:58;100874.97;;;12.37;33.33